sensor_id;sensor_type;location;lat;lon;timestamp;P1;durP1;ratioP1;P2;durP2;ratioP2
17686;SDS011;8962;52.538;13.266;2023-06-14T00:02:11;6.90;;;3.10;;
17686;SDS011;8962;52.538;13.266;2023-06-14T00:04:39;5.70;;;2.90;;
17686;SDS011;8962;52.538;13.266;2023-06-14T00:07:07;3.90;;;2.90;;
17686;SDS011;8962;52.538;13.266;2023-06-14T00:09:35;7.15;;;3.25;;
17686;SDS011;8962;52.538;13.266;2023-06-14T00:12:02;4.53;;;2.97;;
17686;SDS011;8962;52.538;13.266;2023-06-14T00:14:31;5.25;;;3.25;;
17686;SDS011;8962;52.538;13.266;2023-06-14T00:17:00;6.32;;;3.08;;
17686;SDS011;8962;52.538;13.266;2023-06-14T00:19:28;6.57;;;3.05;;
17686;SDS011;8962;52.538;13.266;2023-06-14T00:21:57;14.00;;;3.50;;
17686;SDS011;8962;52.538;13.266;2023-06-14T00:24:25;6.45;;;2.88;;
17686;SDS011;8962;52.538;13.266;2023-06-14T00:26:53;5.40;;;3.00;;
17686;SDS011;8962;52.538;13.266;2023-06-14T00:29:22;3.42;;;2.72;;
17686;SDS011;8962;52.538;13.266;2023-06-14T00:31:49;5.05;;;3.20;;
17686;SDS011;8962;52.538;13.266;2023-06-14T00:34:19;4.40;;;3.03;;
17686;SDS011;8962;52.538;13.266;2023-06-14T00:36:46;5.47;;;3.33;;
17686;SDS011;8962;52.538;13.266;2023-06-14T00:39:14;4.43;;;3.15;;
17686;SDS011;8962;52.538;13.266;2023-06-14T00:41:43;4.90;;;3.45;;
17686;SDS011;8962;52.538;13.266;2023-06-14T00:44:11;4.30;;;3.20;;
17686;SDS011;8962;52.538;13.266;2023-06-14T00:46:40;5.50;;;3.28;;
17686;SDS011;8962;52.538;13.266;2023-06-14T00:49:09;5.32;;;3.00;;
17686;SDS011;8962;52.538;13.266;2023-06-14T00:51:40;6.80;;;3.63;;
17686;SDS011;8962;52.538;13.266;2023-06-14T00:54:07;5.68;;;3.75;;
17686;SDS011;8962;52.538;13.266;2023-06-14T00:56:36;6.10;;;3.25;;
17686;SDS011;8962;52.538;13.266;2023-06-14T00:59:03;5.03;;;3.05;;
17686;SDS011;8962;52.538;13.266;2023-06-14T01:01:32;4.47;;;3.50;;
17686;SDS011;8962;52.538;13.266;2023-06-14T01:04:00;3.90;;;3.30;;
17686;SDS011;8962;52.538;13.266;2023-06-14T01:06:31;4.60;;;3.03;;
17686;SDS011;8962;52.538;13.266;2023-06-14T01:09:14;4.70;;;3.22;;
17686;SDS011;8962;52.538;13.266;2023-06-14T01:11:54;9.20;;;3.70;;
17686;SDS011;8962;52.538;13.266;2023-06-14T01:14:27;4.65;;;3.75;;
17686;SDS011;8962;52.538;13.266;2023-06-14T01:16:56;6.47;;;3.70;;
17686;SDS011;8962;52.538;13.266;2023-06-14T01:19:25;7.22;;;3.95;;
17686;SDS011;8962;52.538;13.266;2023-06-14T01:21:55;10.80;;;4.13;;
17686;SDS011;8962;52.538;13.266;2023-06-14T01:24:24;5.28;;;3.50;;
17686;SDS011;8962;52.538;13.266;2023-06-14T01:26:57;6.03;;;3.72;;
17686;SDS011;8962;52.538;13.266;2023-06-14T01:29:27;5.75;;;3.28;;
17686;SDS011;8962;52.538;13.266;2023-06-14T01:31:57;5.40;;;3.97;;
17686;SDS011;8962;52.538;13.266;2023-06-14T01:34:29;6.85;;;3.80;;
17686;SDS011;8962;52.538;13.266;2023-06-14T01:36:57;7.13;;;4.20;;
17686;SDS011;8962;52.538;13.266;2023-06-14T01:39:28;7.30;;;4.18;;
17686;SDS011;8962;52.538;13.266;2023-06-14T01:41:55;5.95;;;3.88;;
17686;SDS011;8962;52.538;13.266;2023-06-14T01:44:23;7.10;;;4.13;;
17686;SDS011;8962;52.538;13.266;2023-06-14T01:46:51;6.53;;;4.03;;
17686;SDS011;8962;52.538;13.266;2023-06-14T01:49:21;6.15;;;4.20;;
17686;SDS011;8962;52.538;13.266;2023-06-14T01:51:49;6.32;;;4.22;;
17686;SDS011;8962;52.538;13.266;2023-06-14T01:54:16;9.55;;;4.38;;
17686;SDS011;8962;52.538;13.266;2023-06-14T01:56:45;6.47;;;4.55;;
17686;SDS011;8962;52.538;13.266;2023-06-14T01:59:16;6.30;;;4.57;;
17686;SDS011;8962;52.538;13.266;2023-06-14T02:01:43;7.75;;;4.40;;
17686;SDS011;8962;52.538;13.266;2023-06-14T02:04:11;6.85;;;4.50;;
17686;SDS011;8962;52.538;13.266;2023-06-14T02:06:40;6.32;;;4.40;;
17686;SDS011;8962;52.538;13.266;2023-06-14T02:09:08;6.25;;;4.20;;
17686;SDS011;8962;52.538;13.266;2023-06-14T02:11:38;6.20;;;4.40;;
17686;SDS011;8962;52.538;13.266;2023-06-14T02:14:07;6.30;;;4.13;;
17686;SDS011;8962;52.538;13.266;2023-06-14T02:16:36;7.80;;;4.00;;
17686;SDS011;8962;52.538;13.266;2023-06-14T02:19:05;6.85;;;4.90;;
17686;SDS011;8962;52.538;13.266;2023-06-14T02:21:35;6.35;;;4.53;;
17686;SDS011;8962;52.538;13.266;2023-06-14T02:24:05;9.73;;;4.93;;
17686;SDS011;8962;52.538;13.266;2023-06-14T02:26:34;7.57;;;3.95;;
17686;SDS011;8962;52.538;13.266;2023-06-14T02:29:01;7.72;;;4.47;;
17686;SDS011;8962;52.538;13.266;2023-06-14T02:31:30;8.27;;;5.00;;
17686;SDS011;8962;52.538;13.266;2023-06-14T02:33:59;7.03;;;4.75;;
17686;SDS011;8962;52.538;13.266;2023-06-14T02:36:26;11.25;;;7.78;;
17686;SDS011;8962;52.538;13.266;2023-06-14T02:38:56;12.85;;;6.20;;
17686;SDS011;8962;52.538;13.266;2023-06-14T02:41:25;7.90;;;5.30;;
17686;SDS011;8962;52.538;13.266;2023-06-14T02:43:52;8.10;;;5.50;;
17686;SDS011;8962;52.538;13.266;2023-06-14T02:46:21;7.40;;;5.32;;
17686;SDS011;8962;52.538;13.266;2023-06-14T02:48:54;9.77;;;4.78;;
17686;SDS011;8962;52.538;13.266;2023-06-14T02:51:22;12.75;;;5.00;;
17686;SDS011;8962;52.538;13.266;2023-06-14T02:53:52;6.30;;;4.53;;
17686;SDS011;8962;52.538;13.266;2023-06-14T02:56:19;6.72;;;5.15;;
17686;SDS011;8962;52.538;13.266;2023-06-14T02:58:50;7.22;;;4.57;;
17686;SDS011;8962;52.538;13.266;2023-06-14T03:01:19;6.07;;;4.75;;
17686;SDS011;8962;52.538;13.266;2023-06-14T03:03:46;9.75;;;4.82;;
17686;SDS011;8962;52.538;13.266;2023-06-14T03:06:15;9.75;;;4.97;;
17686;SDS011;8962;52.538;13.266;2023-06-14T03:08:45;6.70;;;5.07;;
17686;SDS011;8962;52.538;13.266;2023-06-14T03:11:16;7.72;;;5.07;;
17686;SDS011;8962;52.538;13.266;2023-06-14T03:13:47;7.18;;;5.10;;
17686;SDS011;8962;52.538;13.266;2023-06-14T03:16:16;5.93;;;4.82;;
17686;SDS011;8962;52.538;13.266;2023-06-14T03:18:48;10.98;;;4.68;;
17686;SDS011;8962;52.538;13.266;2023-06-14T03:21:17;5.65;;;4.72;;
17686;SDS011;8962;52.538;13.266;2023-06-14T03:23:45;6.68;;;5.13;;
17686;SDS011;8962;52.538;13.266;2023-06-14T03:26:13;7.15;;;5.20;;
17686;SDS011;8962;52.538;13.266;2023-06-14T03:28:45;7.22;;;4.90;;
17686;SDS011;8962;52.538;13.266;2023-06-14T03:31:14;7.32;;;4.38;;
17686;SDS011;8962;52.538;13.266;2023-06-14T03:33:42;9.02;;;5.30;;
17686;SDS011;8962;52.538;13.266;2023-06-14T03:36:10;13.65;;;5.57;;
17686;SDS011;8962;52.538;13.266;2023-06-14T03:38:42;8.07;;;5.30;;
17686;SDS011;8962;52.538;13.266;2023-06-14T03:41:10;5.68;;;5.07;;
17686;SDS011;8962;52.538;13.266;2023-06-14T03:43:38;13.73;;;5.45;;
17686;SDS011;8962;52.538;13.266;2023-06-14T03:46:06;9.70;;;5.35;;
17686;SDS011;8962;52.538;13.266;2023-06-14T03:48:34;10.00;;;5.60;;
17686;SDS011;8962;52.538;13.266;2023-06-14T03:51:02;7.60;;;5.20;;
17686;SDS011;8962;52.538;13.266;2023-06-14T03:53:30;9.00;;;5.53;;
17686;SDS011;8962;52.538;13.266;2023-06-14T03:56:02;9.20;;;5.65;;
17686;SDS011;8962;52.538;13.266;2023-06-14T03:58:38;9.57;;;5.95;;
17686;SDS011;8962;52.538;13.266;2023-06-14T04:01:06;8.43;;;5.25;;
17686;SDS011;8962;52.538;13.266;2023-06-14T04:03:33;7.18;;;5.28;;
17686;SDS011;8962;52.538;13.266;2023-06-14T04:06:02;9.15;;;5.07;;
17686;SDS011;8962;52.538;13.266;2023-06-14T04:08:30;11.50;;;5.53;;
17686;SDS011;8962;52.538;13.266;2023-06-14T04:11:00;10.80;;;5.55;;
17686;SDS011;8962;52.538;13.266;2023-06-14T04:13:27;9.27;;;5.57;;
17686;SDS011;8962;52.538;13.266;2023-06-14T04:15:55;8.93;;;5.75;;
17686;SDS011;8962;52.538;13.266;2023-06-14T04:18:27;9.70;;;5.95;;
17686;SDS011;8962;52.538;13.266;2023-06-14T04:20:55;9.95;;;5.70;;
17686;SDS011;8962;52.538;13.266;2023-06-14T04:23:22;7.32;;;5.60;;
17686;SDS011;8962;52.538;13.266;2023-06-14T04:25:50;10.15;;;6.07;;
17686;SDS011;8962;52.538;13.266;2023-06-14T04:28:19;9.52;;;6.05;;
17686;SDS011;8962;52.538;13.266;2023-06-14T04:30:52;8.02;;;5.10;;
17686;SDS011;8962;52.538;13.266;2023-06-14T04:33:20;10.80;;;5.68;;
17686;SDS011;8962;52.538;13.266;2023-06-14T04:35:51;11.13;;;6.15;;
17686;SDS011;8962;52.538;13.266;2023-06-14T04:38:23;10.27;;;5.90;;
17686;SDS011;8962;52.538;13.266;2023-06-14T04:40:55;10.25;;;6.25;;
17686;SDS011;8962;52.538;13.266;2023-06-14T04:43:31;9.70;;;6.20;;
17686;SDS011;8962;52.538;13.266;2023-06-14T04:46:04;8.77;;;6.00;;
17686;SDS011;8962;52.538;13.266;2023-06-14T04:48:34;8.50;;;6.18;;
17686;SDS011;8962;52.538;13.266;2023-06-14T04:51:01;7.00;;;5.50;;
17686;SDS011;8962;52.538;13.266;2023-06-14T04:53:29;9.93;;;6.47;;
17686;SDS011;8962;52.538;13.266;2023-06-14T04:55:56;10.23;;;6.28;;
17686;SDS011;8962;52.538;13.266;2023-06-14T04:58:26;9.80;;;6.32;;
17686;SDS011;8962;52.538;13.266;2023-06-14T05:00:57;7.88;;;5.85;;
17686;SDS011;8962;52.538;13.266;2023-06-14T05:03:25;11.68;;;6.05;;
17686;SDS011;8962;52.538;13.266;2023-06-14T05:05:53;9.00;;;6.35;;
17686;SDS011;8962;52.538;13.266;2023-06-14T05:08:20;16.08;;;6.97;;
17686;SDS011;8962;52.538;13.266;2023-06-14T05:10:50;10.02;;;6.80;;
17686;SDS011;8962;52.538;13.266;2023-06-14T05:13:18;7.68;;;6.55;;
17686;SDS011;8962;52.538;13.266;2023-06-14T05:15:49;9.82;;;6.57;;
17686;SDS011;8962;52.538;13.266;2023-06-14T05:18:18;9.13;;;6.15;;
17686;SDS011;8962;52.538;13.266;2023-06-14T05:20:45;9.43;;;6.60;;
17686;SDS011;8962;52.538;13.266;2023-06-14T05:23:12;11.18;;;6.85;;
17686;SDS011;8962;52.538;13.266;2023-06-14T05:25:41;10.40;;;6.72;;
17686;SDS011;8962;52.538;13.266;2023-06-14T05:28:09;9.80;;;6.60;;
17686;SDS011;8962;52.538;13.266;2023-06-14T05:30:37;9.77;;;6.50;;
17686;SDS011;8962;52.538;13.266;2023-06-14T05:33:05;11.48;;;7.18;;
17686;SDS011;8962;52.538;13.266;2023-06-14T05:35:34;14.35;;;6.82;;
17686;SDS011;8962;52.538;13.266;2023-06-14T05:38:04;11.15;;;6.65;;
17686;SDS011;8962;52.538;13.266;2023-06-14T05:40:32;8.48;;;6.10;;
17686;SDS011;8962;52.538;13.266;2023-06-14T05:42:59;12.27;;;6.18;;
17686;SDS011;8962;52.538;13.266;2023-06-14T05:45:29;10.93;;;6.55;;
17686;SDS011;8962;52.538;13.266;2023-06-14T05:47:56;10.20;;;6.22;;
17686;SDS011;8962;52.538;13.266;2023-06-14T05:50:24;9.13;;;6.20;;
17686;SDS011;8962;52.538;13.266;2023-06-14T05:52:55;9.05;;;6.32;;
17686;SDS011;8962;52.538;13.266;2023-06-14T05:55:24;12.43;;;5.85;;
17686;SDS011;8962;52.538;13.266;2023-06-14T05:57:51;9.45;;;6.40;;
17686;SDS011;8962;52.538;13.266;2023-06-14T06:00:20;9.88;;;6.03;;
17686;SDS011;8962;52.538;13.266;2023-06-14T06:02:48;10.93;;;6.53;;
17686;SDS011;8962;52.538;13.266;2023-06-14T06:05:15;10.95;;;6.63;;
17686;SDS011;8962;52.538;13.266;2023-06-14T06:07:42;12.85;;;6.10;;
17686;SDS011;8962;52.538;13.266;2023-06-14T06:10:12;11.30;;;6.18;;
17686;SDS011;8962;52.538;13.266;2023-06-14T06:12:40;9.35;;;5.82;;
17686;SDS011;8962;52.538;13.266;2023-06-14T06:15:10;9.70;;;6.30;;
17686;SDS011;8962;52.538;13.266;2023-06-14T06:17:38;7.90;;;5.93;;
17686;SDS011;8962;52.538;13.266;2023-06-14T06:20:05;9.45;;;5.63;;
17686;SDS011;8962;52.538;13.266;2023-06-14T06:22:34;7.13;;;6.00;;
17686;SDS011;8962;52.538;13.266;2023-06-14T06:25:02;10.15;;;6.10;;
17686;SDS011;8962;52.538;13.266;2023-06-14T06:27:31;9.40;;;5.85;;
17686;SDS011;8962;52.538;13.266;2023-06-14T06:29:59;8.43;;;5.63;;
17686;SDS011;8962;52.538;13.266;2023-06-14T06:32:30;9.05;;;5.53;;
17686;SDS011;8962;52.538;13.266;2023-06-14T06:34:57;8.80;;;6.00;;
17686;SDS011;8962;52.538;13.266;2023-06-14T06:37:28;10.98;;;6.13;;
17686;SDS011;8962;52.538;13.266;2023-06-14T06:39:55;10.98;;;5.88;;
17686;SDS011;8962;52.538;13.266;2023-06-14T06:42:22;7.93;;;4.88;;
17686;SDS011;8962;52.538;13.266;2023-06-14T06:44:52;11.30;;;5.80;;
17686;SDS011;8962;52.538;13.266;2023-06-14T06:47:19;12.20;;;6.05;;
17686;SDS011;8962;52.538;13.266;2023-06-14T06:49:48;9.65;;;5.88;;
17686;SDS011;8962;52.538;13.266;2023-06-14T06:52:17;10.48;;;6.05;;
17686;SDS011;8962;52.538;13.266;2023-06-14T06:54:44;19.13;;;6.00;;
17686;SDS011;8962;52.538;13.266;2023-06-14T06:57:14;9.50;;;6.00;;
17686;SDS011;8962;52.538;13.266;2023-06-14T06:59:42;7.78;;;6.25;;
17686;SDS011;8962;52.538;13.266;2023-06-14T07:02:11;9.20;;;5.38;;
17686;SDS011;8962;52.538;13.266;2023-06-14T07:04:38;7.78;;;5.60;;
17686;SDS011;8962;52.538;13.266;2023-06-14T07:07:06;15.88;;;5.85;;
17686;SDS011;8962;52.538;13.266;2023-06-14T07:09:37;9.80;;;5.40;;
17686;SDS011;8962;52.538;13.266;2023-06-14T07:12:06;9.75;;;5.50;;
17686;SDS011;8962;52.538;13.266;2023-06-14T07:14:35;9.82;;;5.82;;
17686;SDS011;8962;52.538;13.266;2023-06-14T07:17:03;8.65;;;5.60;;
17686;SDS011;8962;52.538;13.266;2023-06-14T07:19:34;8.15;;;5.95;;
17686;SDS011;8962;52.538;13.266;2023-06-14T07:22:02;6.47;;;5.55;;
17686;SDS011;8962;52.538;13.266;2023-06-14T07:24:29;7.00;;;5.50;;
17686;SDS011;8962;52.538;13.266;2023-06-14T07:26:56;11.88;;;5.82;;
17686;SDS011;8962;52.538;13.266;2023-06-14T07:29:23;12.10;;;5.97;;
17686;SDS011;8962;52.538;13.266;2023-06-14T07:31:53;9.32;;;5.80;;
17686;SDS011;8962;52.538;13.266;2023-06-14T07:34:22;11.02;;;5.63;;
17686;SDS011;8962;52.538;13.266;2023-06-14T07:36:52;14.77;;;5.65;;
17686;SDS011;8962;52.538;13.266;2023-06-14T07:39:21;8.23;;;5.65;;
17686;SDS011;8962;52.538;13.266;2023-06-14T07:41:48;11.00;;;5.68;;
17686;SDS011;8962;52.538;13.266;2023-06-14T07:44:16;11.95;;;5.15;;
17686;SDS011;8962;52.538;13.266;2023-06-14T07:46:43;8.57;;;5.00;;
17686;SDS011;8962;52.538;13.266;2023-06-14T07:49:11;13.07;;;5.15;;
17686;SDS011;8962;52.538;13.266;2023-06-14T07:51:39;12.95;;;5.28;;
17686;SDS011;8962;52.538;13.266;2023-06-14T07:54:10;9.90;;;4.90;;
17686;SDS011;8962;52.538;13.266;2023-06-14T07:56:37;8.15;;;5.40;;
17686;SDS011;8962;52.538;13.266;2023-06-14T07:59:04;9.10;;;4.90;;
17686;SDS011;8962;52.538;13.266;2023-06-14T08:01:32;12.82;;;5.25;;
17686;SDS011;8962;52.538;13.266;2023-06-14T08:04:01;11.80;;;5.03;;
17686;SDS011;8962;52.538;13.266;2023-06-14T08:06:29;8.38;;;4.60;;
17686;SDS011;8962;52.538;13.266;2023-06-14T08:08:56;7.88;;;4.53;;
17686;SDS011;8962;52.538;13.266;2023-06-14T08:11:26;7.93;;;4.20;;
17686;SDS011;8962;52.538;13.266;2023-06-14T08:13:55;9.73;;;4.55;;
17686;SDS011;8962;52.538;13.266;2023-06-14T08:16:22;6.75;;;4.35;;
17686;SDS011;8962;52.538;13.266;2023-06-14T08:18:50;12.27;;;4.72;;
17686;SDS011;8962;52.538;13.266;2023-06-14T08:21:18;5.57;;;4.40;;
17686;SDS011;8962;52.538;13.266;2023-06-14T08:23:45;10.80;;;5.05;;
17686;SDS011;8962;52.538;13.266;2023-06-14T08:26:13;10.13;;;4.75;;
17686;SDS011;8962;52.538;13.266;2023-06-14T08:28:43;9.88;;;4.43;;
17686;SDS011;8962;52.538;13.266;2023-06-14T08:31:10;8.60;;;4.22;;
17686;SDS011;8962;52.538;13.266;2023-06-14T08:33:37;8.95;;;4.60;;
17686;SDS011;8962;52.538;13.266;2023-06-14T08:36:09;8.55;;;4.32;;
17686;SDS011;8962;52.538;13.266;2023-06-14T08:38:40;9.60;;;4.40;;
17686;SDS011;8962;52.538;13.266;2023-06-14T08:41:08;10.25;;;4.40;;
17686;SDS011;8962;52.538;13.266;2023-06-14T08:43:43;6.63;;;3.95;;
17686;SDS011;8962;52.538;13.266;2023-06-14T08:46:11;6.85;;;3.63;;
17686;SDS011;8962;52.538;13.266;2023-06-14T08:48:42;7.68;;;3.90;;
17686;SDS011;8962;52.538;13.266;2023-06-14T08:51:09;7.55;;;4.10;;
17686;SDS011;8962;52.538;13.266;2023-06-14T08:53:38;5.85;;;4.10;;
17686;SDS011;8962;52.538;13.266;2023-06-14T08:56:09;10.23;;;3.83;;
17686;SDS011;8962;52.538;13.266;2023-06-14T08:58:38;6.70;;;3.75;;
17686;SDS011;8962;52.538;13.266;2023-06-14T09:01:11;6.28;;;3.25;;
17686;SDS011;8962;52.538;13.266;2023-06-14T09:03:42;7.57;;;4.15;;
17686;SDS011;8962;52.538;13.266;2023-06-14T09:06:11;6.13;;;3.83;;
17686;SDS011;8962;52.538;13.266;2023-06-14T09:08:41;10.60;;;4.15;;
17686;SDS011;8962;52.538;13.266;2023-06-14T09:11:10;11.68;;;4.20;;
17686;SDS011;8962;52.538;13.266;2023-06-14T09:13:40;10.68;;;3.33;;
17686;SDS011;8962;52.538;13.266;2023-06-14T09:16:09;6.28;;;3.58;;
17686;SDS011;8962;52.538;13.266;2023-06-14T09:18:39;5.45;;;3.45;;
17686;SDS011;8962;52.538;13.266;2023-06-14T09:21:13;6.38;;;3.70;;
17686;SDS011;8962;52.538;13.266;2023-06-14T09:23:43;9.60;;;4.05;;
17686;SDS011;8962;52.538;13.266;2023-06-14T09:26:13;9.40;;;3.30;;
17686;SDS011;8962;52.538;13.266;2023-06-14T09:28:46;10.15;;;3.95;;
17686;SDS011;8962;52.538;13.266;2023-06-14T09:31:16;10.50;;;4.50;;
17686;SDS011;8962;52.538;13.266;2023-06-14T09:33:47;10.38;;;5.00;;
17686;SDS011;8962;52.538;13.266;2023-06-14T09:36:18;12.82;;;4.28;;
17686;SDS011;8962;52.538;13.266;2023-06-14T09:38:54;8.48;;;4.03;;
17686;SDS011;8962;52.538;13.266;2023-06-14T09:41:29;7.95;;;3.90;;
17686;SDS011;8962;52.538;13.266;2023-06-14T09:43:58;13.68;;;3.97;;
17686;SDS011;8962;52.538;13.266;2023-06-14T09:46:27;12.52;;;4.00;;
17686;SDS011;8962;52.538;13.266;2023-06-14T09:48:59;7.55;;;4.10;;
17686;SDS011;8962;52.538;13.266;2023-06-14T09:51:27;8.15;;;4.50;;
17686;SDS011;8962;52.538;13.266;2023-06-14T09:53:58;9.20;;;3.78;;
17686;SDS011;8962;52.538;13.266;2023-06-14T09:56:37;6.38;;;3.83;;
17686;SDS011;8962;52.538;13.266;2023-06-14T09:59:09;9.32;;;3.85;;
17686;SDS011;8962;52.538;13.266;2023-06-14T10:01:41;10.23;;;4.35;;
17686;SDS011;8962;52.538;13.266;2023-06-14T10:04:10;8.32;;;3.92;;
17686;SDS011;8962;52.538;13.266;2023-06-14T10:06:40;11.05;;;3.95;;
17686;SDS011;8962;52.538;13.266;2023-06-14T10:09:11;6.68;;;3.80;;
17686;SDS011;8962;52.538;13.266;2023-06-14T10:11:39;10.20;;;4.53;;
17686;SDS011;8962;52.538;13.266;2023-06-14T10:14:11;7.25;;;3.92;;
17686;SDS011;8962;52.538;13.266;2023-06-14T10:16:42;7.25;;;4.28;;
17686;SDS011;8962;52.538;13.266;2023-06-14T10:19:19;10.40;;;4.57;;
17686;SDS011;8962;52.538;13.266;2023-06-14T10:21:53;9.30;;;4.60;;
17686;SDS011;8962;52.538;13.266;2023-06-14T10:24:27;8.70;;;4.68;;
17686;SDS011;8962;52.538;13.266;2023-06-14T10:26:58;11.38;;;4.13;;
17686;SDS011;8962;52.538;13.266;2023-06-14T10:29:27;10.57;;;4.07;;
17686;SDS011;8962;52.538;13.266;2023-06-14T10:31:59;9.35;;;3.70;;
17686;SDS011;8962;52.538;13.266;2023-06-14T10:34:28;8.82;;;4.32;;
17686;SDS011;8962;52.538;13.266;2023-06-14T10:37:00;8.93;;;4.25;;
17686;SDS011;8962;52.538;13.266;2023-06-14T10:39:30;10.30;;;4.07;;
17686;SDS011;8962;52.538;13.266;2023-06-14T10:42:01;11.07;;;5.28;;
17686;SDS011;8962;52.538;13.266;2023-06-14T10:44:40;12.68;;;4.30;;
17686;SDS011;8962;52.538;13.266;2023-06-14T10:47:09;11.68;;;4.15;;
17686;SDS011;8962;52.538;13.266;2023-06-14T10:49:51;9.32;;;4.43;;
17686;SDS011;8962;52.538;13.266;2023-06-14T10:52:24;11.60;;;4.72;;
17686;SDS011;8962;52.538;13.266;2023-06-14T10:55:06;9.02;;;3.80;;
17686;SDS011;8962;52.538;13.266;2023-06-14T10:57:42;11.48;;;4.10;;
17686;SDS011;8962;52.538;13.266;2023-06-14T11:00:13;10.23;;;4.15;;
17686;SDS011;8962;52.538;13.266;2023-06-14T11:06:11;11.93;;;4.18;;
17686;SDS011;8962;52.538;13.266;2023-06-14T11:11:51;17.25;;;4.82;;
17686;SDS011;8962;52.538;13.266;2023-06-14T11:14:22;6.80;;;4.10;;
17686;SDS011;8962;52.538;13.266;2023-06-14T11:16:50;10.15;;;4.15;;
17686;SDS011;8962;52.538;13.266;2023-06-14T11:19:21;10.65;;;4.45;;
17686;SDS011;8962;52.538;13.266;2023-06-14T11:21:58;8.27;;;3.85;;
17686;SDS011;8962;52.538;13.266;2023-06-14T11:24:25;6.50;;;3.92;;
17686;SDS011;8962;52.538;13.266;2023-06-14T11:26:52;7.35;;;3.85;;
17686;SDS011;8962;52.538;13.266;2023-06-14T11:29:24;10.23;;;4.53;;
17686;SDS011;8962;52.538;13.266;2023-06-14T11:31:51;9.15;;;5.07;;
17686;SDS011;8962;52.538;13.266;2023-06-14T11:34:18;10.60;;;4.88;;
17686;SDS011;8962;52.538;13.266;2023-06-14T11:36:45;7.45;;;3.40;;
17686;SDS011;8962;52.538;13.266;2023-06-14T11:39:15;13.05;;;4.28;;
17686;SDS011;8962;52.538;13.266;2023-06-14T11:41:43;7.90;;;3.88;;
17686;SDS011;8962;52.538;13.266;2023-06-14T11:44:11;13.38;;;3.95;;
17686;SDS011;8962;52.538;13.266;2023-06-14T11:46:39;7.43;;;3.90;;
17686;SDS011;8962;52.538;13.266;2023-06-14T11:49:07;12.43;;;4.00;;
17686;SDS011;8962;52.538;13.266;2023-06-14T11:51:34;14.40;;;4.22;;
17686;SDS011;8962;52.538;13.266;2023-06-14T11:54:05;12.30;;;4.35;;
17686;SDS011;8962;52.538;13.266;2023-06-14T11:56:37;8.02;;;4.00;;
17686;SDS011;8962;52.538;13.266;2023-06-14T11:59:05;6.50;;;3.67;;
17686;SDS011;8962;52.538;13.266;2023-06-14T12:01:34;10.02;;;3.55;;
17686;SDS011;8962;52.538;13.266;2023-06-14T12:04:03;8.85;;;3.85;;
17686;SDS011;8962;52.538;13.266;2023-06-14T12:06:31;9.65;;;3.65;;
17686;SDS011;8962;52.538;13.266;2023-06-14T12:09:03;10.07;;;5.90;;
17686;SDS011;8962;52.538;13.266;2023-06-14T12:11:32;10.30;;;4.95;;
17686;SDS011;8962;52.538;13.266;2023-06-14T12:14:04;7.07;;;3.83;;
17686;SDS011;8962;52.538;13.266;2023-06-14T12:16:31;7.80;;;3.97;;
17686;SDS011;8962;52.538;13.266;2023-06-14T12:19:12;10.98;;;4.40;;
17686;SDS011;8962;52.538;13.266;2023-06-14T12:21:40;9.07;;;4.20;;
17686;SDS011;8962;52.538;13.266;2023-06-14T12:24:13;9.73;;;3.70;;
17686;SDS011;8962;52.538;13.266;2023-06-14T12:26:43;7.97;;;3.78;;
17686;SDS011;8962;52.538;13.266;2023-06-14T12:29:12;5.80;;;3.58;;
17686;SDS011;8962;52.538;13.266;2023-06-14T12:31:39;7.30;;;3.65;;
17686;SDS011;8962;52.538;13.266;2023-06-14T12:34:15;10.52;;;3.67;;
17686;SDS011;8962;52.538;13.266;2023-06-14T12:36:42;11.00;;;3.60;;
17686;SDS011;8962;52.538;13.266;2023-06-14T12:39:11;8.13;;;3.40;;
17686;SDS011;8962;52.538;13.266;2023-06-14T12:41:39;5.60;;;3.50;;
17686;SDS011;8962;52.538;13.266;2023-06-14T12:44:07;9.90;;;3.30;;
17686;SDS011;8962;52.538;13.266;2023-06-14T12:46:36;5.38;;;3.20;;
17686;SDS011;8962;52.538;13.266;2023-06-14T12:49:04;8.00;;;3.30;;
17686;SDS011;8962;52.538;13.266;2023-06-14T12:51:32;11.50;;;3.35;;
17686;SDS011;8962;52.538;13.266;2023-06-14T12:53:59;6.10;;;3.20;;
17686;SDS011;8962;52.538;13.266;2023-06-14T12:56:26;10.38;;;3.28;;
17686;SDS011;8962;52.538;13.266;2023-06-14T12:58:54;9.77;;;3.35;;
17686;SDS011;8962;52.538;13.266;2023-06-14T13:01:24;12.52;;;3.10;;
17686;SDS011;8962;52.538;13.266;2023-06-14T13:03:56;8.48;;;2.90;;
17686;SDS011;8962;52.538;13.266;2023-06-14T13:06:26;13.18;;;3.47;;
17686;SDS011;8962;52.538;13.266;2023-06-14T13:08:56;6.50;;;3.15;;
17686;SDS011;8962;52.538;13.266;2023-06-14T13:11:24;9.02;;;3.20;;
17686;SDS011;8962;52.538;13.266;2023-06-14T13:13:51;7.07;;;3.28;;
17686;SDS011;8962;52.538;13.266;2023-06-14T13:16:20;10.40;;;3.30;;
17686;SDS011;8962;52.538;13.266;2023-06-14T13:18:47;12.75;;;3.40;;
17686;SDS011;8962;52.538;13.266;2023-06-14T13:21:15;8.02;;;3.35;;
17686;SDS011;8962;52.538;13.266;2023-06-14T13:23:46;11.05;;;3.65;;
17686;SDS011;8962;52.538;13.266;2023-06-14T13:26:15;9.55;;;3.30;;
17686;SDS011;8962;52.538;13.266;2023-06-14T13:28:45;10.27;;;3.28;;
17686;SDS011;8962;52.538;13.266;2023-06-14T13:31:16;7.28;;;3.05;;
17686;SDS011;8962;52.538;13.266;2023-06-14T13:33:43;10.88;;;4.03;;
17686;SDS011;8962;52.538;13.266;2023-06-14T13:36:10;8.32;;;3.80;;
17686;SDS011;8962;52.538;13.266;2023-06-14T13:38:39;14.32;;;4.13;;
17686;SDS011;8962;52.538;13.266;2023-06-14T13:41:07;7.05;;;3.03;;
17686;SDS011;8962;52.538;13.266;2023-06-14T13:43:34;10.50;;;3.38;;
17686;SDS011;8962;52.538;13.266;2023-06-14T13:46:02;8.02;;;3.20;;
17686;SDS011;8962;52.538;13.266;2023-06-14T13:48:29;6.20;;;3.33;;
17686;SDS011;8962;52.538;13.266;2023-06-14T13:50:57;13.65;;;3.47;;
17686;SDS011;8962;52.538;13.266;2023-06-14T13:53:26;5.65;;;3.40;;
17686;SDS011;8962;52.538;13.266;2023-06-14T13:55:57;13.73;;;3.25;;
17686;SDS011;8962;52.538;13.266;2023-06-14T13:58:26;9.50;;;3.05;;
17686;SDS011;8962;52.538;13.266;2023-06-14T14:00:53;8.18;;;3.83;;
17686;SDS011;8962;52.538;13.266;2023-06-14T14:03:20;6.80;;;2.63;;
17686;SDS011;8962;52.538;13.266;2023-06-14T14:05:47;8.07;;;3.08;;
17686;SDS011;8962;52.538;13.266;2023-06-14T14:08:15;4.72;;;2.70;;
17686;SDS011;8962;52.538;13.266;2023-06-14T14:10:44;8.57;;;3.53;;
17686;SDS011;8962;52.538;13.266;2023-06-14T14:13:13;5.88;;;3.13;;
17686;SDS011;8962;52.538;13.266;2023-06-14T14:15:43;7.78;;;2.67;;
17686;SDS011;8962;52.538;13.266;2023-06-14T14:18:10;14.75;;;3.20;;
17686;SDS011;8962;52.538;13.266;2023-06-14T14:20:38;7.38;;;2.95;;
17686;SDS011;8962;52.538;13.266;2023-06-14T14:23:06;6.90;;;3.60;;
17686;SDS011;8962;52.538;13.266;2023-06-14T14:25:33;7.13;;;3.30;;
17686;SDS011;8962;52.538;13.266;2023-06-14T14:28:01;11.05;;;3.58;;
17686;SDS011;8962;52.538;13.266;2023-06-14T14:30:31;10.07;;;3.70;;
17686;SDS011;8962;52.538;13.266;2023-06-14T14:32:58;9.60;;;3.25;;
17686;SDS011;8962;52.538;13.266;2023-06-14T14:35:27;8.88;;;3.47;;
17686;SDS011;8962;52.538;13.266;2023-06-14T14:37:55;6.82;;;3.63;;
17686;SDS011;8962;52.538;13.266;2023-06-14T14:40:23;8.13;;;3.20;;
17686;SDS011;8962;52.538;13.266;2023-06-14T14:42:50;9.07;;;3.55;;
17686;SDS011;8962;52.538;13.266;2023-06-14T14:45:18;9.00;;;3.80;;
17686;SDS011;8962;52.538;13.266;2023-06-14T14:47:46;6.28;;;3.35;;
17686;SDS011;8962;52.538;13.266;2023-06-14T14:50:14;15.40;;;4.32;;
17686;SDS011;8962;52.538;13.266;2023-06-14T14:52:42;8.05;;;3.70;;
17686;SDS011;8962;52.538;13.266;2023-06-14T14:55:09;6.55;;;3.45;;
17686;SDS011;8962;52.538;13.266;2023-06-14T14:57:36;5.47;;;3.50;;
17686;SDS011;8962;52.538;13.266;2023-06-14T15:00:03;7.45;;;3.28;;
17686;SDS011;8962;52.538;13.266;2023-06-14T15:02:34;10.73;;;3.60;;